Time;durP1;ratioP1;P1;durP2;ratioP2;P2;SDS_P1;SDS_P2;PMS_P1;PMS_P2;Temp;Humidity;BMP_temperature;BMP_pressure;BME280_temperature;BME280_humidity;BME280_pressure;Samples;Min_cycle;Max_cycle;Signal;HPM_P1;HPM_P2
2022/04/04 00:02:22;;;;;;;0.10;0.10;;;;;;;;;;1869579;76;26238;-40
2022/04/04 00:04:50;;;;;;;0.17;0.17;;;;;;;;;;1866336;76;26256;-44
2022/04/04 00:07:17;;;;;;;0.10;0.10;;;;;;;;;;1851576;76;26273;-42
2022/04/04 00:09:46;;;;;;;0.20;0.20;;;;;;;;;;1872127;76;26360;-47
2022/04/04 00:12:13;;;;;;;0.15;0.15;;;;;;;;;;1879843;75;26362;-39
2022/04/04 00:14:40;;;;;;;0.20;0.20;;;;;;;;;;1875106;76;26250;-51
2022/04/04 00:17:07;;;;;;;0.10;0.10;;;;;;;;;;1879424;76;26746;-50
2022/04/04 00:19:35;;;;;;;0.10;0.10;;;;;;;;;;1863038;76;26241;-39
2022/04/04 00:22:02;;;;;;;0.10;0.10;;;;;;;;;;1849121;77;26277;-44
2022/04/04 00:24:29;;;;;;;0.45;0.45;;;;;;;;;;1859132;76;26302;-42
2022/04/04 00:26:57;;;;;;;0.20;0.20;;;;;;;;;;1880624;75;26764;-46
2022/04/04 00:29:25;;;;;;;0.20;0.20;;;;;;;;;;1876467;75;26239;-40
2022/04/04 00:31:53;;;;;;;0.13;0.13;;;;;;;;;;1860395;76;26293;-40
2022/04/04 00:34:21;;;;;;;0.10;0.10;;;;;;;;;;1869858;76;26293;-50
2022/04/04 00:36:48;;;;;;;0.13;0.13;;;;;;;;;;1887608;76;26430;-43
2022/04/04 00:39:19;;;;;;;0.20;0.20;;;;;;;;;;1867313;75;26266;-43
2022/04/04 00:41:48;;;;;;;0.20;0.20;;;;;;;;;;1864532;76;26342;-52
2022/04/04 00:44:15;;;;;;;0.20;0.20;;;;;;;;;;1869633;76;26269;-41
2022/04/04 00:46:43;;;;;;;0.10;0.10;;;;;;;;;;1863753;76;26830;-48
2022/04/04 00:49:11;;;;;;;0.20;0.20;;;;;;;;;;1867321;76;26258;-43
2022/04/04 00:51:39;;;;;;;0.20;0.20;;;;;;;;;;1890109;76;26284;-46
2022/04/04 00:54:07;;;;;;;0.20;0.20;;;;;;;;;;1887597;76;26312;-43
2022/04/04 00:56:36;;;;;;;0.17;0.17;;;;;;;;;;1890456;76;26234;-46
2022/04/04 00:59:10;;;;;;;0.20;0.20;;;;;;;;;;1888855;76;27438;-51
2022/04/04 01:01:35;;;;;;;0.10;0.10;;;;;;;;;;1889889;76;26385;-44
2022/04/04 01:04:03;;;;;;;0.90;0.13;;;;;;;;;;1881348;76;26289;-53
2022/04/04 01:06:30;;;;;;;0.20;0.20;;;;;;;;;;1857434;77;26346;-48
2022/04/04 01:08:57;;;;;;;0.23;0.23;;;;;;;;;;1877059;76;26325;-43
2022/04/04 01:11:24;;;;;;;0.13;0.13;;;;;;;;;;1855029;76;26285;-40
2022/04/04 01:13:52;;;;;;;0.00;0.00;;;;;;;;;;1863212;76;26770;-45
2022/04/04 01:16:19;;;;;;;0.17;0.17;;;;;;;;;;1882824;76;26690;-40
2022/04/04 01:18:46;;;;;;;0.20;0.20;;;;;;;;;;1864506;76;26251;-43
2022/04/04 01:21:15;;;;;;;0.10;0.10;;;;;;;;;;1862102;76;26277;-43
2022/04/04 01:23:43;;;;;;;0.10;0.10;;;;;;;;;;1862050;76;26294;-50
2022/04/04 01:26:12;;;;;;;0.20;0.20;;;;;;;;;;1862261;76;26272;-44
2022/04/04 01:28:40;;;;;;;0.37;0.37;;;;;;;;;;1866182;76;26327;-47
2022/04/04 01:31:08;;;;;;;0.30;0.30;;;;;;;;;;1857994;76;26254;-46
2022/04/04 01:33:37;;;;;;;0.20;0.20;;;;;;;;;;1866037;75;26273;-44
2022/04/04 01:36:05;;;;;;;0.20;0.20;;;;;;;;;;1895354;75;26872;-45
2022/04/04 01:38:33;;;;;;;0.20;0.20;;;;;;;;;;1881088;75;26274;-44
2022/04/04 01:41:00;;;;;;;0.20;0.20;;;;;;;;;;1864148;76;26288;-46
2022/04/04 01:43:27;;;;;;;0.98;0.20;;;;;;;;;;1864440;75;26257;-40
2022/04/04 01:48:40;;;;;;;0.10;0.10;;;;;;;;;;1894988;75;26832;-54
2022/04/04 01:51:07;;;;;;;0.20;0.20;;;;;;;;;;1873355;75;26778;-44
2022/04/04 01:53:34;;;;;;;0.20;0.20;;;;;;;;;;1867113;75;26330;-43
2022/04/04 01:56:03;;;;;;;0.15;0.15;;;;;;;;;;1838728;77;26353;-46
2022/04/04 01:58:31;;;;;;;0.20;0.20;;;;;;;;;;1836718;75;26380;-48
2022/04/04 02:01:01;;;;;;;0.10;0.10;;;;;;;;;;1867761;75;26364;-51
2022/04/04 02:03:29;;;;;;;0.20;0.20;;;;;;;;;;1863648;75;26390;-40
2022/04/04 02:05:56;;;;;;;0.10;0.10;;;;;;;;;;1850860;75;26279;-43
2022/04/04 02:08:24;;;;;;;0.20;0.20;;;;;;;;;;1860024;75;26277;-42
2022/04/04 02:10:51;;;;;;;0.20;0.20;;;;;;;;;;1862032;75;26772;-42
2022/04/04 02:13:18;;;;;;;0.20;0.20;;;;;;;;;;1870882;75;26714;-40
2022/04/04 02:15:46;;;;;;;0.10;0.10;;;;;;;;;;1868990;75;26304;-44
2022/04/04 02:18:13;;;;;;;0.10;0.10;;;;;;;;;;1885841;75;26315;-49
2022/04/04 02:20:40;;;;;;;0.45;0.20;;;;;;;;;;1869264;75;26440;-48
2022/04/04 02:23:08;;;;;;;0.30;0.30;;;;;;;;;;1863932;77;26358;-46
2022/04/04 02:25:35;;;;;;;0.10;0.10;;;;;;;;;;1839496;76;26873;-46
2022/04/04 02:28:02;;;;;;;0.13;0.13;;;;;;;;;;1863938;77;26762;-47
2022/04/04 02:30:31;;;;;;;0.62;0.17;;;;;;;;;;1878818;75;26249;-43
2022/04/04 02:32:58;;;;;;;0.33;0.23;;;;;;;;;;1866027;76;26343;-49
2022/04/04 02:35:26;;;;;;;0.30;0.30;;;;;;;;;;1894052;75;26246;-41
2022/04/04 02:37:54;;;;;;;0.30;0.20;;;;;;;;;;1869630;75;26338;-45
2022/04/04 02:40:22;;;;;;;0.53;0.30;;;;;;;;;;1875752;75;26273;-42
2022/04/04 02:42:49;;;;;;;0.20;0.20;;;;;;;;;;1863787;77;26803;-53
2022/04/04 02:45:17;;;;;;;0.23;0.20;;;;;;;;;;1879417;75;26870;-50
2022/04/04 02:47:44;;;;;;;1.12;0.20;;;;;;;;;;1887364;75;26245;-46
2022/04/04 02:50:12;;;;;;;0.20;0.20;;;;;;;;;;1887541;75;26308;-47
2022/04/04 02:52:39;;;;;;;0.98;0.30;;;;;;;;;;1893194;75;26677;-43
2022/04/04 02:57:52;;;;;;;0.33;0.20;;;;;;;;;;1865890;75;26301;-54
2022/04/04 03:00:20;;;;;;;0.20;0.20;;;;;;;;;;1864178;75;26654;-54
2022/04/04 03:02:48;;;;;;;0.60;0.25;;;;;;;;;;1863577;75;26323;-57
2022/04/04 03:05:15;;;;;;;0.20;0.20;;;;;;;;;;1869111;75;26638;-46
2022/04/04 03:07:42;;;;;;;0.57;0.20;;;;;;;;;;1864621;75;26665;-49
2022/04/04 03:10:11;;;;;;;0.62;0.10;;;;;;;;;;1866135;75;26264;-51
2022/04/04 03:12:43;;;;;;;0.10;0.10;;;;;;;;;;1866843;75;26324;-41
2022/04/04 03:15:12;;;;;;;0.30;0.30;;;;;;;;;;1862957;75;26508;-54
2022/04/04 03:17:40;;;;;;;0.23;0.23;;;;;;;;;;1858215;75;26264;-54
2022/04/04 03:20:09;;;;;;;0.53;0.30;;;;;;;;;;1864216;75;26252;-52
2022/04/04 03:22:37;;;;;;;0.90;0.20;;;;;;;;;;1868377;75;26275;-40
2022/04/04 03:25:05;;;;;;;0.30;0.30;;;;;;;;;;1866690;75;26249;-45
2022/04/04 03:27:33;;;;;;;0.30;0.30;;;;;;;;;;1866324;75;26263;-46
2022/04/04 03:30:00;;;;;;;2.65;0.40;;;;;;;;;;1865423;75;26368;-40
2022/04/04 03:32:28;;;;;;;0.62;0.20;;;;;;;;;;1865302;75;26256;-57
2022/04/04 03:34:55;;;;;;;0.40;0.30;;;;;;;;;;1868583;75;26284;-46
2022/04/04 03:37:22;;;;;;;0.65;0.20;;;;;;;;;;1866372;75;25866;-51
2022/04/04 03:39:49;;;;;;;2.45;0.20;;;;;;;;;;1867922;75;26697;-42
2022/04/04 03:42:17;;;;;;;3.98;0.35;;;;;;;;;;1861956;75;26664;-46
2022/04/04 03:44:44;;;;;;;3.60;0.40;;;;;;;;;;1865784;75;26256;-51
2022/04/04 03:47:12;;;;;;;3.17;0.30;;;;;;;;;;1860821;75;26264;-43
2022/04/04 03:49:39;;;;;;;1.10;0.10;;;;;;;;;;1865718;75;26233;-39
2022/04/04 03:52:07;;;;;;;2.45;0.37;;;;;;;;;;1863107;75;26254;-40
2022/04/04 03:54:35;;;;;;;0.57;0.30;;;;;;;;;;1871603;75;26277;-41
2022/04/04 03:57:02;;;;;;;1.10;0.23;;;;;;;;;;1863394;75;26830;-49
2022/04/04 03:59:30;;;;;;;0.30;0.30;;;;;;;;;;1873869;75;26246;-43
2022/04/04 04:01:57;;;;;;;0.90;0.20;;;;;;;;;;1863660;75;26336;-46
2022/04/04 04:04:24;;;;;;;0.33;0.30;;;;;;;;;;1871492;75;26322;-42
2022/04/04 04:06:52;;;;;;;0.30;0.30;;;;;;;;;;1872128;75;26264;-43
2022/04/04 04:09:20;;;;;;;0.20;0.20;;;;;;;;;;1866556;75;26712;-39
2022/04/04 04:11:48;;;;;;;0.20;0.20;;;;;;;;;;1867064;75;26277;-45
2022/04/04 04:14:16;;;;;;;0.10;0.10;;;;;;;;;;1863589;75;26272;-46
2022/04/04 04:16:43;;;;;;;1.10;0.30;;;;;;;;;;1866695;75;26265;-44
2022/04/04 04:20:19;;;;;;;3.83;0.20;;;;;;;;;;1865567;75;26263;-49
2022/04/04 04:21:40;;;;;;;1.27;0.20;;;;;;;;;;1865160;75;26330;-48
2022/04/04 04:24:07;;;;;;;4.72;0.35;;;;;;;;;;1862004;75;26287;-49
2022/04/04 04:26:35;;;;;;;1.65;0.30;;;;;;;;;;1862770;75;26309;-48
2022/04/04 04:29:02;;;;;;;0.30;0.30;;;;;;;;;;1864385;75;26319;-47
2022/04/04 04:31:31;;;;;;;3.62;0.28;;;;;;;;;;1867963;75;26321;-50
2022/04/04 04:34:00;;;;;;;1.40;0.30;;;;;;;;;;1862740;75;26288;-53
2022/04/04 04:36:27;;;;;;;5.10;0.42;;;;;;;;;;1856535;76;26286;-45
2022/04/04 04:38:55;;;;;;;0.93;0.30;;;;;;;;;;1859198;76;26250;-50
2022/04/04 04:41:22;;;;;;;0.80;0.20;;;;;;;;;;1856264;76;26348;-45
2022/04/04 04:43:50;;;;;;;0.62;0.33;;;;;;;;;;1856674;76;26229;-49
2022/04/04 04:46:17;;;;;;;0.28;0.28;;;;;;;;;;1861841;76;26327;-48
2022/04/04 04:48:44;;;;;;;1.55;0.30;;;;;;;;;;1864041;76;26325;-47
2022/04/04 04:51:11;;;;;;;1.00;0.30;;;;;;;;;;1859502;76;26253;-53
2022/04/04 04:53:39;;;;;;;0.23;0.20;;;;;;;;;;1857766;76;26273;-47
2022/04/04 04:56:07;;;;;;;1.12;0.28;;;;;;;;;;1877992;76;26769;-52
2022/04/04 04:58:34;;;;;;;0.85;0.23;;;;;;;;;;1862116;76;26802;-50
2022/04/04 05:01:01;;;;;;;3.05;0.40;;;;;;;;;;1856640;76;26344;-47
2022/04/04 05:03:28;;;;;;;0.30;0.30;;;;;;;;;;1876864;76;26235;-45
2022/04/04 05:05:56;;;;;;;1.25;0.25;;;;;;;;;;1873859;76;26323;-48
2022/04/04 05:08:23;;;;;;;3.02;0.40;;;;;;;;;;1855149;76;26262;-53
2022/04/04 05:10:52;;;;;;;0.40;0.30;;;;;;;;;;1855499;76;26284;-45
2022/04/04 05:13:21;;;;;;;5.00;1.27;;;;;;;;;;1858943;76;26721;-44
2022/04/04 05:15:48;;;;;;;0.35;0.25;;;;;;;;;;1863301;76;26806;-47
2022/04/04 05:18:16;;;;;;;0.30;0.30;;;;;;;;;;1869937;76;26231;-48
2022/04/04 05:20:43;;;;;;;0.40;0.40;;;;;;;;;;1855153;76;26238;-48
2022/04/04 05:23:11;;;;;;;3.20;0.40;;;;;;;;;;1855922;76;26241;-52
2022/04/04 05:25:38;;;;;;;2.40;0.40;;;;;;;;;;1873815;76;26735;-46
2022/04/04 05:28:07;;;;;;;0.50;0.50;;;;;;;;;;1864705;76;26235;-47
2022/04/04 05:30:35;;;;;;;0.37;0.37;;;;;;;;;;1876048;76;26611;-46
2022/04/04 05:33:02;;;;;;;0.40;0.40;;;;;;;;;;1863408;76;26280;-46
2022/04/04 05:35:30;;;;;;;2.20;0.42;;;;;;;;;;1870851;75;26297;-45
2022/04/04 05:37:57;;;;;;;0.62;0.30;;;;;;;;;;1863759;76;26246;-47
2022/04/04 05:40:25;;;;;;;2.52;0.40;;;;;;;;;;1848109;76;26535;-50
2022/04/04 05:42:54;;;;;;;0.40;0.40;;;;;;;;;;1866897;76;26846;-44
2022/04/04 05:45:23;;;;;;;0.40;0.40;;;;;;;;;;1861984;76;27030;-46
2022/04/04 05:47:52;;;;;;;0.30;0.30;;;;;;;;;;1863437;76;26621;-50
2022/04/04 05:50:20;;;;;;;1.00;0.47;;;;;;;;;;1846286;76;26895;-44
2022/04/04 05:52:47;;;;;;;0.50;0.50;;;;;;;;;;1862120;76;25617;-47
2022/04/04 05:55:15;;;;;;;0.85;0.78;;;;;;;;;;1836346;76;26902;-50
2022/04/04 05:57:42;;;;;;;0.40;0.40;;;;;;;;;;1847695;76;26722;-45
2022/04/04 06:00:16;;;;;;;2.08;0.33;;;;;;;;;;1866526;76;26254;-54
2022/04/04 06:02:45;;;;;;;1.15;0.60;;;;;;;;;;1863119;76;26285;-52
2022/04/04 06:05:12;;;;;;;0.90;0.50;;;;;;;;;;1846534;76;26360;-49
2022/04/04 06:07:40;;;;;;;0.40;0.37;;;;;;;;;;1846160;76;26257;-44
2022/04/04 06:10:08;;;;;;;2.75;0.57;;;;;;;;;;1854213;76;26674;-48
2022/04/04 06:12:39;;;;;;;1.35;0.45;;;;;;;;;;1851315;76;26242;-47
2022/04/04 06:15:07;;;;;;;0.33;0.33;;;;;;;;;;1845025;76;26266;-50
2022/04/04 06:17:34;;;;;;;1.57;0.50;;;;;;;;;;1849407;76;26241;-42
2022/04/04 06:20:03;;;;;;;0.33;0.30;;;;;;;;;;1847390;76;26236;-48
2022/04/04 06:22:31;;;;;;;0.42;0.42;;;;;;;;;;1858137;76;27363;-51
2022/04/04 06:24:59;;;;;;;2.27;0.40;;;;;;;;;;1859798;76;26230;-43
2022/04/04 06:27:26;;;;;;;0.50;0.42;;;;;;;;;;1847701;76;26303;-45
2022/04/04 06:29:54;;;;;;;0.65;0.40;;;;;;;;;;1846872;76;26238;-40
2022/04/04 06:32:24;;;;;;;1.77;0.30;;;;;;;;;;1850093;76;26262;-45
2022/04/04 06:34:50;;;;;;;1.85;0.40;;;;;;;;;;1846396;76;26637;-43
2022/04/04 06:37:18;;;;;;;1.92;0.40;;;;;;;;;;1847514;76;26351;-45
2022/04/04 06:39:45;;;;;;;0.40;0.40;;;;;;;;;;1847057;76;26250;-43
2022/04/04 06:42:12;;;;;;;3.30;0.30;;;;;;;;;;1849004;76;26234;-46
2022/04/04 06:44:39;;;;;;;0.28;0.28;;;;;;;;;;1853315;76;26270;-41
2022/04/04 06:47:07;;;;;;;2.17;0.50;;;;;;;;;;1851058;76;26328;-49
2022/04/04 06:49:34;;;;;;;0.55;0.40;;;;;;;;;;1850106;76;26324;-43
2022/04/04 06:52:01;;;;;;;0.30;0.30;;;;;;;;;;1846409;76;26508;-43
2022/04/04 06:54:29;;;;;;;0.47;0.40;;;;;;;;;;1846071;76;26346;-45
2022/04/04 06:56:56;;;;;;;0.30;0.30;;;;;;;;;;1847480;76;26238;-45
2022/04/04 06:59:23;;;;;;;0.60;0.30;;;;;;;;;;1847524;76;26240;-46
2022/04/04 07:01:50;;;;;;;0.40;0.40;;;;;;;;;;1843875;76;26254;-46
2022/04/04 07:04:18;;;;;;;0.60;0.30;;;;;;;;;;1856289;76;25725;-43
2022/04/04 07:06:45;;;;;;;1.25;0.28;;;;;;;;;;1846173;76;26277;-41
2022/04/04 07:09:12;;;;;;;2.40;0.40;;;;;;;;;;1854150;76;26281;-45
2022/04/04 07:11:40;;;;;;;0.42;0.30;;;;;;;;;;1847421;76;26242;-41
2022/04/04 07:14:09;;;;;;;0.45;0.45;;;;;;;;;;1856354;76;26775;-41
2022/04/04 07:16:36;;;;;;;0.40;0.40;;;;;;;;;;1852367;76;26261;-47
2022/04/04 07:19:03;;;;;;;0.23;0.23;;;;;;;;;;1851254;76;26296;-44
2022/04/04 07:21:31;;;;;;;0.57;0.30;;;;;;;;;;1850451;76;26741;-43
2022/04/04 07:23:58;;;;;;;0.30;0.30;;;;;;;;;;1854320;76;26456;-49
2022/04/04 07:26:26;;;;;;;2.27;0.30;;;;;;;;;;1853450;76;26226;-50
2022/04/04 07:28:53;;;;;;;0.75;0.30;;;;;;;;;;1853570;76;26755;-50
2022/04/04 07:31:21;;;;;;;1.20;0.40;;;;;;;;;;1853681;76;26791;-43
2022/04/04 07:33:48;;;;;;;1.35;0.30;;;;;;;;;;1853602;75;26245;-45
2022/04/04 07:36:16;;;;;;;0.30;0.30;;;;;;;;;;1847589;76;26627;-44
2022/04/04 07:38:43;;;;;;;0.30;0.30;;;;;;;;;;1854532;76;26351;-52
2022/04/04 07:41:11;;;;;;;0.30;0.30;;;;;;;;;;1852258;76;26262;-50
2022/04/04 07:43:38;;;;;;;0.30;0.30;;;;;;;;;;1847598;76;26245;-48
2022/04/04 07:46:05;;;;;;;0.40;0.40;;;;;;;;;;1849298;76;26330;-46
2022/04/04 07:48:33;;;;;;;2.47;0.50;;;;;;;;;;1844958;76;26719;-39
2022/04/04 07:51:01;;;;;;;3.37;0.40;;;;;;;;;;1846984;76;26261;-44
2022/04/04 07:53:28;;;;;;;5.35;0.60;;;;;;;;;;1842548;76;26237;-39
2022/04/04 07:55:55;;;;;;;3.02;0.50;;;;;;;;;;1839966;76;26261;-44
2022/04/04 07:58:23;;;;;;;4.83;0.60;;;;;;;;;;1835871;78;26281;-45
2022/04/04 08:00:52;;;;;;;1.10;0.42;;;;;;;;;;1849060;76;26254;-45
2022/04/04 08:03:23;;;;;;;0.60;0.50;;;;;;;;;;1841175;76;26693;-42
2022/04/04 08:05:50;;;;;;;1.75;0.60;;;;;;;;;;1845929;77;26750;-45
2022/04/04 08:08:17;;;;;;;1.65;0.42;;;;;;;;;;1838585;77;26736;-42
2022/04/04 08:10:45;;;;;;;1.50;0.60;;;;;;;;;;1835505;78;26761;-43
2022/04/04 08:13:12;;;;;;;2.05;0.70;;;;;;;;;;1841806;76;26309;-48
2022/04/04 08:15:39;;;;;;;0.68;0.50;;;;;;;;;;1847141;76;26643;-39
2022/04/04 08:18:07;;;;;;;0.75;0.42;;;;;;;;;;1846076;77;26242;-42
2022/04/04 08:20:34;;;;;;;1.30;0.53;;;;;;;;;;1830328;78;27130;-41
2022/04/04 08:23:01;;;;;;;0.95;0.47;;;;;;;;;;1835826;78;26367;-48
2022/04/04 08:25:29;;;;;;;2.77;0.50;;;;;;;;;;1857296;76;26319;-42
2022/04/04 08:27:56;;;;;;;0.60;0.60;;;;;;;;;;1879531;76;26749;-41
2022/04/04 08:30:23;;;;;;;0.70;0.40;;;;;;;;;;1879025;76;26352;-38
2022/04/04 08:32:51;;;;;;;2.00;0.50;;;;;;;;;;1847361;77;26327;-45
2022/04/04 08:35:18;;;;;;;0.45;0.40;;;;;;;;;;1837673;77;26347;-40
2022/04/04 08:37:46;;;;;;;0.95;0.40;;;;;;;;;;1851501;76;26252;-47
2022/04/04 08:40:14;;;;;;;1.30;0.40;;;;;;;;;;1857016;77;26727;-46
2022/04/04 08:42:42;;;;;;;0.50;0.50;;;;;;;;;;1857025;77;26796;-49
2022/04/04 08:45:09;;;;;;;0.70;0.42;;;;;;;;;;1857325;76;26714;-48
2022/04/04 08:47:37;;;;;;;0.47;0.47;;;;;;;;;;1856363;76;26353;-38
2022/04/04 08:50:04;;;;;;;0.50;0.50;;;;;;;;;;1856840;77;26298;-41
2022/04/04 08:52:32;;;;;;;0.30;0.30;;;;;;;;;;1856844;77;26656;-45
2022/04/04 08:54:59;;;;;;;0.65;0.65;;;;;;;;;;1856879;77;26240;-44
2022/04/04 08:57:26;;;;;;;0.35;0.33;;;;;;;;;;1856655;77;26252;-47
2022/04/04 08:59:54;;;;;;;0.25;0.25;;;;;;;;;;1881262;76;26262;-42
2022/04/04 09:02:21;;;;;;;0.45;0.45;;;;;;;;;;1888772;76;26359;-40
2022/04/04 09:04:52;;;;;;;0.40;0.40;;;;;;;;;;1875942;76;26250;-41
2022/04/04 09:07:21;;;;;;;0.70;0.70;;;;;;;;;;1857222;77;26264;-46
2022/04/04 09:09:50;;;;;;;0.40;0.40;;;;;;;;;;1857012;76;26358;-44
2022/04/04 09:12:19;;;;;;;0.50;0.40;;;;;;;;;;1856017;77;26821;-42
2022/04/04 09:14:57;;;;;;;1.52;0.40;;;;;;;;;;1839911;77;26566;-43
2022/04/04 09:17:27;;;;;;;0.30;0.30;;;;;;;;;;1855728;77;25847;-43
2022/04/04 09:19:55;;;;;;;0.30;0.30;;;;;;;;;;1856152;77;26564;-37
2022/04/04 09:22:23;;;;;;;0.85;0.33;;;;;;;;;;1856546;77;26889;-42
2022/04/04 09:24:51;;;;;;;0.30;0.30;;;;;;;;;;1858308;76;26245;-37
2022/04/04 09:27:22;;;;;;;0.30;0.30;;;;;;;;;;1882375;76;26226;-39
2022/04/04 09:29:51;;;;;;;0.33;0.33;;;;;;;;;;1889054;76;26695;-44
2022/04/04 09:32:19;;;;;;;0.35;0.35;;;;;;;;;;1863214;76;26365;-43
2022/04/04 09:34:53;;;;;;;0.40;0.40;;;;;;;;;;1857223;77;26327;-45
2022/04/04 09:37:22;;;;;;;0.20;0.20;;;;;;;;;;1858981;77;26296;-47
2022/04/04 09:39:50;;;;;;;0.30;0.30;;;;;;;;;;1863406;77;26327;-49
2022/04/04 09:42:19;;;;;;;0.37;0.30;;;;;;;;;;1862955;77;26253;-41
2022/04/04 09:45:04;;;;;;;0.72;0.30;;;;;;;;;;1862964;75;26320;-44
2022/04/04 09:47:42;;;;;;;0.37;0.37;;;;;;;;;;1861321;77;26761;-48
2022/04/04 09:50:09;;;;;;;0.40;0.40;;;;;;;;;;1859621;76;26277;-40
2022/04/04 09:52:40;;;;;;;0.40;0.40;;;;;;;;;;1861096;77;26285;-39
2022/04/04 09:55:08;;;;;;;0.20;0.20;;;;;;;;;;1853575;75;26312;-41
2022/04/04 09:57:35;;;;;;;0.30;0.30;;;;;;;;;;1878352;75;26300;-42
2022/04/04 10:00:03;;;;;;;0.95;0.35;;;;;;;;;;1894636;75;26283;-38
2022/04/04 10:02:30;;;;;;;0.37;0.28;;;;;;;;;;1894712;75;26653;-37
2022/04/04 10:04:58;;;;;;;0.13;0.13;;;;;;;;;;1880050;75;26245;-42
2022/04/04 10:07:26;;;;;;;0.37;0.30;;;;;;;;;;1878999;75;26245;-38
2022/04/04 10:09:54;;;;;;;0.20;0.20;;;;;;;;;;1863042;77;26386;-42
2022/04/04 10:12:21;;;;;;;0.17;0.17;;;;;;;;;;1862900;76;26678;-44
2022/04/04 10:14:50;;;;;;;0.20;0.20;;;;;;;;;;1856464;75;25794;-43
2022/04/04 10:17:19;;;;;;;0.20;0.20;;;;;;;;;;1861862;75;26838;-39
2022/04/04 10:19:47;;;;;;;0.20;0.20;;;;;;;;;;1862398;77;26237;-42
2022/04/04 10:22:15;;;;;;;0.10;0.10;;;;;;;;;;1862953;77;26277;-46
2022/04/04 10:24:43;;;;;;;0.20;0.20;;;;;;;;;;1863077;77;26767;-40
2022/04/04 10:27:12;;;;;;;0.15;0.15;;;;;;;;;;1863224;77;26655;-41
2022/04/04 10:29:45;;;;;;;0.20;0.20;;;;;;;;;;1863122;75;26387;-47
2022/04/04 10:32:25;;;;;;;0.10;0.10;;;;;;;;;;1862831;76;26279;-47
2022/04/04 10:34:53;;;;;;;0.10;0.10;;;;;;;;;;1891277;75;26349;-40
2022/04/04 10:37:21;;;;;;;0.20;0.20;;;;;;;;;;1894532;75;26368;-42
2022/04/04 10:39:49;;;;;;;0.10;0.10;;;;;;;;;;1869322;76;26621;-46
2022/04/04 10:42:36;;;;;;;0.20;0.20;;;;;;;;;;1838536;78;26280;-44
2022/04/04 10:45:10;;;;;;;0.20;0.20;;;;;;;;;;1847869;76;26261;-43
2022/04/04 10:47:39;;;;;;;0.35;0.20;;;;;;;;;;1846559;77;26691;-42
2022/04/04 10:50:20;;;;;;;0.20;0.20;;;;;;;;;;1846040;76;26322;-45
2022/04/04 10:52:47;;;;;;;0.15;0.15;;;;;;;;;;1838609;78;26252;-44
2022/04/04 10:55:33;;;;;;;0.20;0.20;;;;;;;;;;1839330;78;26272;-46
2022/04/04 10:58:01;;;;;;;0.08;0.08;;;;;;;;;;1838730;78;26260;-37
2022/04/04 11:00:33;;;;;;;0.10;0.10;;;;;;;;;;1838598;78;26346;-47
2022/04/04 11:03:03;;;;;;;0.10;0.10;;;;;;;;;;1867270;76;26737;-37
2022/04/04 11:08:37;;;;;;;0.13;0.13;;;;;;;;;;1868882;76;26284;-42
2022/04/04 11:11:02;;;;;;;0.20;0.20;;;;;;;;;;1882283;76;26381;-37
2022/04/04 11:13:29;;;;;;;0.20;0.20;;;;;;;;;;1866076;76;26264;-44
2022/04/04 11:15:56;;;;;;;0.15;0.15;;;;;;;;;;1843102;77;26836;-40
2022/04/04 11:18:32;;;;;;;0.10;0.10;;;;;;;;;;1847126;77;26351;-43
2022/04/04 11:20:59;;;;;;;0.20;0.20;;;;;;;;;;1838381;76;26265;-41
2022/04/04 11:23:24;;;;;;;0.20;0.20;;;;;;;;;;1878853;76;26691;-42
2022/04/04 11:25:53;;;;;;;0.13;0.13;;;;;;;;;;1844413;76;26790;-47
2022/04/04 11:28:24;;;;;;;0.15;0.15;;;;;;;;;;1838881;78;26346;-44
2022/04/04 11:30:53;;;;;;;0.03;0.03;;;;;;;;;;1840268;77;26343;-50
2022/04/04 11:33:27;;;;;;;0.00;0.00;;;;;;;;;;1845019;77;26277;-46
2022/04/04 11:35:55;;;;;;;0.10;0.10;;;;;;;;;;1850337;76;26778;-50
2022/04/04 11:38:20;;;;;;;0.10;0.10;;;;;;;;;;1866890;76;26805;-39
2022/04/04 11:40:57;;;;;;;0.10;0.10;;;;;;;;;;1847391;77;26257;-40
2022/04/04 11:43:17;;;;;;;0.10;0.10;;;;;;;;;;1828645;77;26814;-44
2022/04/04 11:45:46;;;;;;;0.00;0.00;;;;;;;;;;1798099;79;26573;-42
2022/04/04 11:48:16;;;;;;;0.10;0.10;;;;;;;;;;1812278;77;26732;-47
2022/04/04 11:50:44;;;;;;;0.10;0.10;;;;;;;;;;1800924;77;26370;-40
2022/04/04 11:53:12;;;;;;;0.13;0.13;;;;;;;;;;1814838;79;26310;-47
2022/04/04 11:55:41;;;;;;;0.10;0.10;;;;;;;;;;1805213;79;26328;-43
2022/04/04 11:58:12;;;;;;;0.20;0.10;;;;;;;;;;1826615;77;26318;-43
2022/04/04 12:00:42;;;;;;;0.00;0.00;;;;;;;;;;1846861;77;26399;-43
2022/04/04 12:03:13;;;;;;;0.10;0.10;;;;;;;;;;1847574;77;26256;-41
2022/04/04 12:05:42;;;;;;;0.10;0.10;;;;;;;;;;1824234;77;26262;-42
2022/04/04 12:08:10;;;;;;;0.05;0.05;;;;;;;;;;1825782;77;26236;-41
2022/04/04 12:10:38;;;;;;;0.10;0.10;;;;;;;;;;1842819;77;26296;-40
2022/04/04 12:13:07;;;;;;;0.15;0.15;;;;;;;;;;1837052;77;26250;-39
2022/04/04 12:15:36;;;;;;;0.00;0.00;;;;;;;;;;1808002;79;26697;-46
2022/04/04 12:18:04;;;;;;;0.10;0.10;;;;;;;;;;1755608;81;26798;-41
2022/04/04 12:20:38;;;;;;;0.10;0.10;;;;;;;;;;1749366;81;26887;-48
2022/04/04 12:25:53;;;;;;;0.10;0.10;;;;;;;;;;1769991;81;26913;-47
2022/04/04 12:28:25;;;;;;;0.20;0.20;;;;;;;;;;1769951;80;26383;-44
2022/04/04 12:30:53;;;;;;;0.10;0.10;;;;;;;;;;1771094;81;26817;-48
2022/04/04 12:33:23;;;;;;;0.10;0.10;;;;;;;;;;1771581;81;26932;-46
2022/04/04 12:35:50;;;;;;;0.08;0.08;;;;;;;;;;1774727;81;26758;-45
2022/04/04 12:38:22;;;;;;;0.10;0.10;;;;;;;;;;1774468;80;26286;-42
2022/04/04 12:41:06;;;;;;;0.10;0.10;;;;;;;;;;1760943;81;25673;-41
2022/04/04 12:43:35;;;;;;;0.10;0.10;;;;;;;;;;1757896;80;26962;-49
2022/04/04 12:46:02;;;;;;;0.05;0.05;;;;;;;;;;1757036;80;26286;-42
2022/04/04 12:48:41;;;;;;;0.10;0.10;;;;;;;;;;1764100;81;26691;-37
2022/04/04 12:51:09;;;;;;;0.03;0.03;;;;;;;;;;1763964;81;26295;-43
2022/04/04 12:53:47;;;;;;;0.20;0.20;;;;;;;;;;1762839;80;26306;-37
2022/04/04 12:56:15;;;;;;;0.00;0.00;;;;;;;;;;1772039;80;26630;-44
2022/04/04 12:58:43;;;;;;;0.00;0.00;;;;;;;;;;1764711;80;26356;-38
2022/04/04 13:01:15;;;;;;;0.10;0.10;;;;;;;;;;1763825;81;26295;-44
2022/04/04 13:03:53;;;;;;;0.10;0.10;;;;;;;;;;1763266;81;26341;-46
2022/04/04 13:06:21;;;;;;;0.00;0.00;;;;;;;;;;1754241;80;26319;-44
2022/04/04 13:08:57;;;;;;;0.10;0.10;;;;;;;;;;1779424;80;26942;-39
2022/04/04 13:11:26;;;;;;;0.10;0.10;;;;;;;;;;1765187;80;26318;-44
2022/04/04 13:14:07;;;;;;;0.00;0.00;;;;;;;;;;1763986;81;26330;-44
2022/04/04 13:16:33;;;;;;;0.10;0.10;;;;;;;;;;1747182;80;26376;-44
2022/04/04 13:19:00;;;;;;;0.00;0.00;;;;;;;;;;1763693;81;26369;-40
2022/04/04 13:21:28;;;;;;;0.10;0.10;;;;;;;;;;1762176;81;26326;-40
2022/04/04 13:23:55;;;;;;;0.10;0.10;;;;;;;;;;1762674;81;26369;-47
2022/04/04 13:26:23;;;;;;;0.00;0.00;;;;;;;;;;1764903;81;26394;-44
2022/04/04 13:28:50;;;;;;;0.00;0.00;;;;;;;;;;1775770;80;26362;-40
2022/04/04 13:31:19;;;;;;;0.00;0.00;;;;;;;;;;1787700;80;26831;-42
2022/04/04 13:33:48;;;;;;;0.10;0.10;;;;;;;;;;1775084;80;26291;-42
2022/04/04 13:36:16;;;;;;;0.00;0.00;;;;;;;;;;1738502;80;26391;-39
2022/04/04 13:38:43;;;;;;;0.00;0.00;;;;;;;;;;1739852;79;26481;-42
2022/04/04 13:41:11;;;;;;;0.00;0.00;;;;;;;;;;1800942;79;26795;-42
2022/04/04 13:43:38;;;;;;;0.10;0.10;;;;;;;;;;1789683;78;26306;-39
2022/04/04 13:46:05;;;;;;;0.17;0.17;;;;;;;;;;1803535;78;26279;-39
2022/04/04 13:48:33;;;;;;;0.20;0.10;;;;;;;;;;1798749;79;26280;-43
2022/04/04 13:51:01;;;;;;;0.28;0.10;;;;;;;;;;1802507;79;26373;-39
2022/04/04 13:53:28;;;;;;;3.25;0.10;;;;;;;;;;1807726;79;26276;-39
2022/04/04 13:55:55;;;;;;;1.85;0.30;;;;;;;;;;1808094;79;26291;-42
2022/04/04 13:58:23;;;;;;;0.88;0.20;;;;;;;;;;1808375;79;26361;-45
2022/04/04 14:00:50;;;;;;;0.10;0.10;;;;;;;;;;1813945;79;26320;-44
2022/04/04 14:03:18;;;;;;;0.20;0.10;;;;;;;;;;1802276;78;26644;-46
2022/04/04 14:05:45;;;;;;;0.75;0.20;;;;;;;;;;1801710;79;26280;-40
2022/04/04 14:08:13;;;;;;;0.10;0.10;;;;;;;;;;1794896;79;26278;-41
2022/04/04 14:10:41;;;;;;;0.57;0.30;;;;;;;;;;1807296;79;26690;-43
2022/04/04 14:13:09;;;;;;;1.75;0.17;;;;;;;;;;1804801;79;26400;-40
2022/04/04 14:15:37;;;;;;;0.20;0.17;;;;;;;;;;1788531;79;26336;-40
2022/04/04 14:18:05;;;;;;;2.08;0.15;;;;;;;;;;1770745;79;26924;-41
2022/04/04 14:20:33;;;;;;;3.08;0.00;;;;;;;;;;1785555;79;26326;-50
2022/04/04 14:23:00;;;;;;;0.20;0.20;;;;;;;;;;1801780;79;26288;-41
2022/04/04 14:25:27;;;;;;;1.87;0.15;;;;;;;;;;1800158;78;26316;-46
2022/04/04 14:27:55;;;;;;;0.25;0.10;;;;;;;;;;1806463;78;26291;-44
2022/04/04 14:30:25;;;;;;;1.02;0.20;;;;;;;;;;1807424;78;26389;-40
2022/04/04 14:32:53;;;;;;;2.22;0.15;;;;;;;;;;1812274;78;26269;-41
2022/04/04 14:35:21;;;;;;;0.10;0.10;;;;;;;;;;1802868;79;26580;-40
2022/04/04 14:37:50;;;;;;;0.65;0.13;;;;;;;;;;1807916;79;26330;-40
2022/04/04 14:40:17;;;;;;;0.13;0.10;;;;;;;;;;1807819;79;26787;-38
2022/04/04 14:42:45;;;;;;;1.10;0.20;;;;;;;;;;1808121;79;26743;-40
2022/04/04 14:45:13;;;;;;;1.77;0.10;;;;;;;;;;1805853;78;26317;-41
2022/04/04 14:47:41;;;;;;;2.62;0.20;;;;;;;;;;1802335;78;26287;-42
2022/04/04 14:50:09;;;;;;;0.15;0.03;;;;;;;;;;1805475;78;26405;-37
2022/04/04 14:52:37;;;;;;;0.30;0.20;;;;;;;;;;1807414;79;26708;-43
2022/04/04 14:55:05;;;;;;;0.00;0.00;;;;;;;;;;1805191;78;26894;-40
2022/04/04 14:57:33;;;;;;;0.55;0.20;;;;;;;;;;1807605;79;26641;-47
2022/04/04 15:00:05;;;;;;;0.33;0.13;;;;;;;;;;1800141;78;26350;-51
2022/04/04 15:02:30;;;;;;;3.20;0.30;;;;;;;;;;1803745;78;26284;-44